createdAt,value
2022-09-21T00:08:20.841Z,98920
2022-09-21T00:20:20.542Z,98920
2022-09-21T00:32:20.649Z,98910
2022-09-21T00:44:20.557Z,98930
2022-09-21T00:56:20.722Z,98930
2022-09-21T01:08:21.054Z,98940
2022-09-21T01:20:21.042Z,98940
2022-09-21T01:32:20.686Z,98930
2022-09-21T01:44:21.071Z,98940
2022-09-21T01:56:21.131Z,98950
2022-09-21T02:08:20.737Z,98950
2022-09-21T02:20:20.798Z,98950
2022-09-21T02:32:21.504Z,98950
2022-09-21T02:44:20.784Z,98940
2022-09-21T02:56:21.141Z,98950
2022-09-21T03:08:21.074Z,98950
2022-09-21T03:20:20.865Z,98950
2022-09-21T03:32:20.835Z,98940
2022-09-21T03:44:20.871Z,98950
2022-09-21T03:56:21.030Z,98950
2022-09-21T04:08:21.058Z,98950
2022-09-21T04:20:21.012Z,98950
2022-09-21T04:32:21.267Z,98950
2022-09-21T04:44:20.783Z,98960
2022-09-21T04:56:20.798Z,98980
2022-09-21T05:08:21.143Z,98980
2022-09-21T05:20:20.813Z,98990
2022-09-21T05:32:20.735Z,99000
2022-09-21T05:44:21.128Z,99010
2022-09-21T05:56:21.196Z,99020
2022-09-21T06:08:20.724Z,99020
2022-09-21T06:20:20.751Z,99030
2022-09-21T06:32:21.316Z,99030
2022-09-21T06:44:21.040Z,99030
2022-09-21T06:56:21.187Z,99030
2022-09-21T07:20:21.335Z,99030
2022-09-21T07:32:21.190Z,99030
2022-09-21T07:44:21.460Z,99030
2022-09-21T07:56:21.170Z,99030
2022-09-21T08:08:21.058Z,99030
2022-09-21T08:20:21.043Z,99030
2022-09-21T08:32:46.600Z,99040
2022-09-21T08:44:20.651Z,99040
2022-09-21T08:56:20.655Z,99040
2022-09-21T09:08:21.047Z,99030
2022-09-21T09:20:20.960Z,99030
2022-09-21T09:32:20.837Z,99020
2022-09-21T09:44:20.704Z,99020
2022-09-21T09:56:20.569Z,99010
2022-09-21T10:08:20.605Z,99000
2022-09-21T10:20:20.625Z,99000
2022-09-21T10:32:20.603Z,98990
2022-09-21T10:44:20.616Z,99000
2022-09-21T10:56:20.561Z,98950
2022-09-21T11:08:20.958Z,98950
2022-09-21T11:20:20.551Z,98960
2022-09-21T11:32:20.720Z,98940
2022-09-21T11:44:20.536Z,98930
2022-09-21T11:56:20.828Z,98920
2022-09-21T12:08:20.949Z,98910
2022-09-21T12:20:20.860Z,98900
2022-09-21T12:32:20.531Z,98890
2022-09-21T12:44:20.653Z,98880
2022-09-21T12:56:21.072Z,98880
2022-09-21T13:08:20.627Z,98860
2022-09-21T13:20:20.831Z,98850
2022-09-21T13:32:20.753Z,98850
2022-09-21T13:44:20.608Z,98850
2022-09-21T13:56:20.659Z,98820
2022-09-21T14:08:21.055Z,98820
2022-09-21T14:20:21.012Z,98810
2022-09-21T14:32:20.564Z,98810
2022-09-21T14:44:20.790Z,98810
2022-09-21T14:56:20.640Z,98800
2022-09-21T15:08:20.585Z,98770
2022-09-21T15:20:20.665Z,98780
2022-09-21T15:32:20.986Z,98770
2022-09-21T15:44:20.592Z,98760
2022-09-21T15:56:20.602Z,98750
2022-09-21T16:08:20.560Z,98760
2022-09-21T16:20:21.005Z,98770
2022-09-21T16:32:21.269Z,98780
2022-09-21T16:44:20.862Z,98780
2022-09-21T16:56:20.712Z,98790
2022-09-21T17:08:21.048Z,98800
2022-09-21T17:20:21.420Z,98800
2022-09-21T17:32:20.877Z,98790
2022-09-21T17:44:20.578Z,98800
2022-09-21T17:56:20.715Z,98820
2022-09-21T18:08:21.031Z,98820
2022-09-21T18:20:21.239Z,98830
2022-09-21T18:32:21.212Z,98830
2022-09-21T18:44:20.776Z,98830
2022-09-21T18:56:21.394Z,98840
2022-09-21T19:08:20.759Z,98850
2022-09-21T19:20:23.887Z,98850
2022-09-21T19:32:20.849Z,98850
2022-09-21T19:44:21.105Z,98840
2022-09-21T19:56:20.730Z,98840
2022-09-21T20:08:21.062Z,98850
2022-09-21T20:20:21.253Z,98850
2022-09-21T20:32:20.677Z,98840
2022-09-21T20:44:21.243Z,98850
2022-09-21T20:56:20.599Z,98840
2022-09-21T21:08:20.672Z,98850
2022-09-21T21:20:20.944Z,98850
2022-09-21T21:32:20.744Z,98860
2022-09-21T21:44:20.597Z,98860
2022-09-21T21:56:20.899Z,98850
2022-09-21T22:08:20.884Z,98850
2022-09-21T22:20:20.700Z,98860
2022-09-21T22:32:20.761Z,98850
2022-09-21T22:44:20.697Z,98850
2022-09-21T22:56:21.147Z,98840
2022-09-21T23:08:21.176Z,98830
2022-09-21T23:20:20.711Z,98830
2022-09-21T23:32:20.610Z,98830
2022-09-21T23:44:21.101Z,98830
2022-09-21T23:56:20.708Z,98830
